Check out our new PWSWeather beta!
PWSweather.com
Personal Weather Stations
Station Observations
SELSTON
Bracken House, Selston NottinghamGB NG16 6AN

Bracken HouseSelston NottinghamGB NG16 6AN

Lat: 53.070642, Lon: -1.2933

Elevation: 426

Station Type: Davis Vantage Pro 2

http://www.selstonweather.info

High Low Average
Temperature 47.9°F8.8°F 36.4°F2.4°F 40.3°F4.6°F
Dew Point 41.6°F5.3°F 33.1°F0.6°F 36.4°F2.4°F
Winds 23.0 mph -37.0 mph - 2.0 mph 3.2 mph 9.3 mph 15.0 mph
Wind Gusts 32.0 mph51.5 mph 8.0 mph12.9 mph 17.8 mph28.6 mph
Humidity 90% 78% 86%
Pressure 29.94 in1013.90 in 29.80 in1009.10 in -
Precipitation 1.84 in46.70 in - -
Hour Temp Dew Point Humidity Winds Wind Gusts Pressure Precip Precip Rate Daily Precip Total
12:01 AM 38.4°F3.6°C 33.1°F0.6°C 81% 12.0 mph WSW19.3 kmh WSW 21.0 mph33.8 kmh 29.87 in1011.5 mb 0.00 in0.0 mm 0.00 in0.0 mm 0.00 in0.0 mm
12:06 AM 38.4°F3.6°C 33.4°F0.8°C 82% 14.0 mph WSW22.5 kmh WSW 21.0 mph33.8 kmh 29.87 in1011.5 mb 0.00 in0.0 mm 0.00 in0.0 mm 0.00 in0.0 mm
12:11 AM 38.4°F3.6°C 33.4°F0.8°C 82% 17.0 mph WSW27.4 kmh WSW 24.0 mph38.6 kmh 29.87 in1011.5 mb 0.00 in0.0 mm 0.00 in0.0 mm 0.00 in0.0 mm
12:16 AM 38.5°F3.6°C 33.5°F0.8°C 82% 10.0 mph W16.1 kmh W 24.0 mph38.6 kmh 29.88 in1011.9 mb 0.00 in0.0 mm 0.00 in0.0 mm 0.00 in0.0 mm
12:21 AM 38.4°F3.6°C 33.4°F0.8°C 82% 11.0 mph W17.7 kmh W 24.0 mph38.6 kmh 29.88 in1011.9 mb 0.00 in0.0 mm 0.00 in0.0 mm 0.00 in0.0 mm
12:26 AM 38.4°F3.6°C 33.4°F0.8°C 82% 10.0 mph WSW16.1 kmh WSW 24.0 mph38.6 kmh 29.89 in1012.2 mb 0.00 in0.0 mm 0.00 in0.0 mm 0.00 in0.0 mm
12:31 AM 38.4°F3.6°C 33.4°F0.8°C 82% 9.0 mph WSW14.5 kmh WSW 22.0 mph35.4 kmh 29.89 in1012.2 mb 0.00 in0.0 mm 0.00 in0.0 mm 0.00 in0.0 mm
12:36 AM 38.4°F3.6°C 33.4°F0.8°C 82% 8.0 mph WSW12.9 kmh WSW 22.0 mph35.4 kmh 29.89 in1012.2 mb 0.00 in0.0 mm 0.00 in0.0 mm 0.00 in0.0 mm
12:41 AM 38.2°F3.4°C 33.2°F0.7°C 82% 15.0 mph W24.1 kmh W 19.0 mph30.6 kmh 29.90 in1012.5 mb 0.00 in0.0 mm 0.00 in0.0 mm 0.00 in0.0 mm
12:46 AM 38.2°F3.4°C 33.5°F0.8°C 83% 10.0 mph WSW16.1 kmh WSW 19.0 mph30.6 kmh 29.91 in1012.9 mb 0.00 in0.0 mm 0.00 in0.0 mm 0.00 in0.0 mm
12:51 AM 38.2°F3.4°C 33.5°F0.8°C 83% 6.0 mph W9.7 kmh W 19.0 mph30.6 kmh 29.91 in1012.9 mb 0.00 in0.0 mm 0.00 in0.0 mm 0.00 in0.0 mm
12:56 AM 38.2°F3.4°C 33.5°F0.8°C 83% 12.0 mph W19.3 kmh W 19.0 mph30.6 kmh 29.91 in1012.9 mb 0.00 in0.0 mm 0.00 in0.0 mm 0.00 in0.0 mm
01:01 AM 38.2°F3.4°C 33.2°F0.7°C 82% 6.0 mph W9.7 kmh W 19.0 mph30.6 kmh 29.91 in1012.9 mb 0.00 in0.0 mm 0.00 in0.0 mm 0.01 in0.3 mm
01:06 AM 38.1°F3.4°C 33.4°F0.8°C 83% 7.0 mph WSW11.3 kmh WSW 16.0 mph25.7 kmh 29.91 in1012.9 mb 0.00 in0.0 mm 0.00 in0.0 mm 0.01 in0.3 mm
01:11 AM 38.1°F3.4°C 33.4°F0.8°C 83% 7.0 mph WSW11.3 kmh WSW 16.0 mph25.7 kmh 29.92 in1013.2 mb 0.00 in0.0 mm 0.00 in0.0 mm 0.01 in0.3 mm
01:16 AM 38.1°F3.4°C 33.4°F0.8°C 83% 6.0 mph W9.7 kmh W 13.0 mph20.9 kmh 29.92 in1013.2 mb 0.00 in0.0 mm 0.00 in0.0 mm 0.01 in0.3 mm
01:21 AM 38.1°F3.4°C 33.4°F0.8°C 83% 9.0 mph WSW14.5 kmh WSW 14.0 mph22.5 kmh 29.92 in1013.2 mb 0.00 in0.0 mm 0.00 in0.0 mm 0.01 in0.3 mm
01:26 AM 38.1°F3.4°C 33.4°F0.8°C 83% 10.0 mph W16.1 kmh W 14.0 mph22.5 kmh 29.92 in1013.2 mb 0.00 in0.0 mm 0.00 in0.0 mm 0.01 in0.3 mm
01:31 AM 38.1°F3.4°C 33.4°F0.8°C 83% 6.0 mph W9.7 kmh W 16.0 mph25.7 kmh 29.92 in1013.2 mb 0.00 in0.0 mm 0.00 in0.0 mm 0.01 in0.3 mm
01:36 AM 38.2°F3.4°C 33.8°F1.0°C 84% 11.0 mph WSW17.7 kmh WSW 16.0 mph25.7 kmh 29.92 in1013.2 mb 0.00 in0.0 mm 0.00 in0.0 mm 0.01 in0.3 mm
01:41 AM 38.2°F3.4°C 33.8°F1.0°C 84% 11.0 mph WSW17.7 kmh WSW 16.0 mph25.7 kmh 29.92 in1013.2 mb 0.00 in0.0 mm 0.00 in0.0 mm 0.01 in0.3 mm
01:46 AM 38.2°F3.4°C 33.5°F0.8°C 83% 11.0 mph WSW17.7 kmh WSW 16.0 mph25.7 kmh 29.92 in1013.2 mb 0.00 in0.0 mm 0.00 in0.0 mm 0.01 in0.3 mm
01:51 AM 38.2°F3.4°C 33.5°F0.8°C 83% 6.0 mph W9.7 kmh W 15.0 mph24.1 kmh 29.92 in1013.2 mb 0.00 in0.0 mm 0.00 in0.0 mm 0.01 in0.3 mm
01:56 AM 38.2°F3.4°C 33.5°F0.8°C 83% 9.0 mph WSW14.5 kmh WSW 15.0 mph24.1 kmh 29.92 in1013.2 mb 0.00 in0.0 mm 0.00 in0.0 mm 0.01 in0.3 mm
02:01 AM 38.2°F3.4°C 33.8°F1.0°C 84% 7.0 mph W11.3 kmh W 15.0 mph24.1 kmh 29.93 in1013.5 mb 0.00 in0.0 mm 0.00 in0.0 mm 0.01 in0.3 mm
02:06 AM 38.1°F3.4°C 33.4°F0.8°C 83% 6.0 mph WSW9.7 kmh WSW 15.0 mph24.1 kmh 29.93 in1013.5 mb 0.00 in0.0 mm 0.00 in0.0 mm 0.01 in0.3 mm
02:11 AM 38.0°F3.3°C 33.6°F0.9°C 84% 4.0 mph WSW6.4 kmh WSW 15.0 mph24.1 kmh 29.93 in1013.5 mb 0.00 in0.0 mm 0.00 in0.0 mm 0.01 in0.3 mm
02:16 AM 38.0°F3.3°C 33.6°F0.9°C 84% 6.0 mph WSW9.7 kmh WSW 15.0 mph24.1 kmh 29.93 in1013.5 mb 0.00 in0.0 mm 0.00 in0.0 mm 0.01 in0.3 mm
02:21 AM 38.0°F3.3°C 33.6°F0.9°C 84% 4.0 mph SW6.4 kmh SW 11.0 mph17.7 kmh 29.93 in1013.5 mb 0.00 in0.0 mm 0.00 in0.0 mm 0.01 in0.3 mm
02:26 AM 37.9°F3.3°C 33.5°F0.8°C 84% 6.0 mph W9.7 kmh W 11.0 mph17.7 kmh 29.93 in1013.5 mb 0.00 in0.0 mm 0.00 in0.0 mm 0.01 in0.3 mm
02:31 AM 37.8°F3.2°C 33.4°F0.8°C 84% 8.0 mph WSW12.9 kmh WSW 13.0 mph20.9 kmh 29.93 in1013.5 mb 0.00 in0.0 mm 0.00 in0.0 mm 0.01 in0.3 mm
02:36 AM 38.1°F3.4°C 33.7°F0.9°C 84% 6.0 mph WSW9.7 kmh WSW 13.0 mph20.9 kmh 29.93 in1013.5 mb 0.00 in0.0 mm 0.00 in0.0 mm 0.01 in0.3 mm
02:41 AM 38.2°F3.4°C 33.8°F1.0°C 84% 6.0 mph WSW9.7 kmh WSW 13.0 mph20.9 kmh 29.92 in1013.2 mb 0.00 in0.0 mm 0.00 in0.0 mm 0.01 in0.3 mm
02:46 AM 38.1°F3.4°C 33.7°F0.9°C 84% 8.0 mph WSW12.9 kmh WSW 13.0 mph20.9 kmh 29.92 in1013.2 mb 0.00 in0.0 mm 0.00 in0.0 mm 0.01 in0.3 mm
02:51 AM 38.0°F3.3°C 33.6°F0.9°C 84% 5.0 mph W8.0 kmh W 13.0 mph20.9 kmh 29.92 in1013.2 mb 0.00 in0.0 mm 0.00 in0.0 mm 0.01 in0.3 mm
02:56 AM 38.0°F3.3°C 33.6°F0.9°C 84% 5.0 mph W8.0 kmh W 13.0 mph20.9 kmh 29.91 in1012.9 mb 0.00 in0.0 mm 0.00 in0.0 mm 0.01 in0.3 mm
03:01 AM 38.0°F3.3°C 33.6°F0.9°C 84% 8.0 mph W12.9 kmh W 15.0 mph24.1 kmh 29.91 in1012.9 mb 0.00 in0.0 mm 0.00 in0.0 mm 0.01 in0.3 mm
03:06 AM 38.1°F3.4°C 33.7°F0.9°C 84% 10.0 mph WSW16.1 kmh WSW 16.0 mph25.7 kmh 29.92 in1013.2 mb 0.00 in0.0 mm 0.00 in0.0 mm 0.01 in0.3 mm
03:11 AM 38.1°F3.4°C 34.0°F1.1°C 85% 9.0 mph W14.5 kmh W 17.0 mph27.4 kmh 29.92 in1013.2 mb 0.00 in0.0 mm 0.00 in0.0 mm 0.01 in0.3 mm
03:16 AM 38.2°F3.4°C 34.1°F1.2°C 85% 5.0 mph WSW8.0 kmh WSW 17.0 mph27.4 kmh 29.92 in1013.2 mb 0.00 in0.0 mm 0.00 in0.0 mm 0.01 in0.3 mm
03:21 AM 38.2°F3.4°C 34.1°F1.2°C 85% 10.0 mph NW16.1 kmh NW 17.0 mph27.4 kmh 29.92 in1013.2 mb 0.00 in0.0 mm 0.00 in0.0 mm 0.01 in0.3 mm
03:26 AM 38.2°F3.4°C 34.1°F1.2°C 85% 8.0 mph WSW12.9 kmh WSW 17.0 mph27.4 kmh 29.92 in1013.2 mb 0.00 in0.0 mm 0.00 in0.0 mm 0.01 in0.3 mm
03:31 AM 38.1°F3.4°C 34.0°F1.1°C 85% 10.0 mph WSW16.1 kmh WSW 13.0 mph20.9 kmh 29.92 in1013.2 mb 0.00 in0.0 mm 0.00 in0.0 mm 0.01 in0.3 mm
03:36 AM 37.9°F3.3°C 33.8°F1.0°C 85% 5.0 mph WSW8.0 kmh WSW 13.0 mph20.9 kmh 29.92 in1013.2 mb 0.00 in0.0 mm 0.00 in0.0 mm 0.01 in0.3 mm
03:41 AM 37.7°F3.2°C 33.6°F0.9°C 85% 6.0 mph WSW9.7 kmh WSW 11.0 mph17.7 kmh 29.92 in1013.2 mb 0.00 in0.0 mm 0.00 in0.0 mm 0.01 in0.3 mm
03:46 AM 37.7°F3.2°C 33.6°F0.9°C 85% 6.0 mph SW9.7 kmh SW 11.0 mph17.7 kmh 29.92 in1013.2 mb 0.00 in0.0 mm 0.00 in0.0 mm 0.01 in0.3 mm
03:51 AM 37.6°F3.1°C 33.5°F0.8°C 85% 7.0 mph WSW11.3 kmh WSW 11.0 mph17.7 kmh 29.92 in1013.2 mb 0.00 in0.0 mm 0.00 in0.0 mm 0.01 in0.3 mm
03:56 AM 37.5°F3.1°C 33.4°F0.8°C 85% 4.0 mph WSW6.4 kmh WSW 11.0 mph17.7 kmh 29.92 in1013.2 mb 0.00 in0.0 mm 0.00 in0.0 mm 0.01 in0.3 mm
04:01 AM 37.3°F2.9°C 33.5°F0.8°C 86% 5.0 mph WSW8.0 kmh WSW 12.0 mph19.3 kmh 29.91 in1012.9 mb 0.00 in0.0 mm 0.00 in0.0 mm 0.01 in0.3 mm
04:06 AM 37.3°F2.9°C 33.5°F0.8°C 86% 10.0 mph SW16.1 kmh SW 13.0 mph20.9 kmh 29.91 in1012.9 mb 0.00 in0.0 mm 0.00 in0.0 mm 0.01 in0.3 mm
04:11 AM 37.2°F2.9°C 33.4°F0.8°C 86% 5.0 mph SW8.0 kmh SW 13.0 mph20.9 kmh 29.91 in1012.9 mb 0.00 in0.0 mm 0.00 in0.0 mm 0.01 in0.3 mm
04:16 AM 37.1°F2.8°C 33.3°F0.7°C 86% 9.0 mph W14.5 kmh W 13.0 mph20.9 kmh 29.92 in1013.2 mb 0.00 in0.0 mm 0.00 in0.0 mm 0.01 in0.3 mm
04:21 AM 37.1°F2.8°C 33.3°F0.7°C 86% 10.0 mph WSW16.1 kmh WSW 13.0 mph20.9 kmh 29.92 in1013.2 mb 0.00 in0.0 mm 0.00 in0.0 mm 0.01 in0.3 mm
04:26 AM 37.0°F2.8°C 33.5°F0.8°C 87% 9.0 mph SW14.5 kmh SW 13.0 mph20.9 kmh 29.93 in1013.5 mb 0.00 in0.0 mm 0.00 in0.0 mm 0.01 in0.3 mm
04:31 AM 36.9°F2.7°C 33.4°F0.8°C 87% 10.0 mph WSW16.1 kmh WSW 13.0 mph20.9 kmh 29.93 in1013.5 mb 0.00 in0.0 mm 0.00 in0.0 mm 0.01 in0.3 mm
04:36 AM 36.8°F2.7°C 33.3°F0.7°C 87% 7.0 mph WSW11.3 kmh WSW 11.0 mph17.7 kmh 29.93 in1013.5 mb 0.00 in0.0 mm 0.00 in0.0 mm 0.01 in0.3 mm
04:41 AM 36.8°F2.7°C 33.3°F0.7°C 87% 2.0 mph WSW3.2 kmh WSW 11.0 mph17.7 kmh 29.93 in1013.5 mb 0.00 in0.0 mm 0.00 in0.0 mm 0.01 in0.3 mm
04:46 AM 36.7°F2.6°C 33.2°F0.7°C 87% 5.0 mph W8.0 kmh W 11.0 mph17.7 kmh 29.93 in1013.5 mb 0.00 in0.0 mm 0.00 in0.0 mm 0.01 in0.3 mm
04:51 AM 36.6°F2.6°C 33.4°F0.8°C 88% 5.0 mph WSW8.0 kmh WSW 11.0 mph17.7 kmh 29.92 in1013.2 mb 0.00 in0.0 mm 0.00 in0.0 mm 0.01 in0.3 mm
04:56 AM 36.5°F2.5°C 33.3°F0.7°C 88% 4.0 mph SW6.4 kmh SW 11.0 mph17.7 kmh 29.92 in1013.2 mb 0.00 in0.0 mm 0.00 in0.0 mm 0.01 in0.3 mm
05:01 AM 36.4°F2.4°C 33.2°F0.7°C 88% 3.0 mph WSW4.8 kmh WSW 11.0 mph17.7 kmh 29.93 in1013.5 mb 0.00 in0.0 mm 0.00 in0.0 mm 0.01 in0.3 mm
05:06 AM 36.4°F2.4°C 33.2°F0.7°C 88% 5.0 mph WSW8.0 kmh WSW 11.0 mph17.7 kmh 29.93 in1013.5 mb 0.00 in0.0 mm 0.00 in0.0 mm 0.01 in0.3 mm
05:11 AM 36.4°F2.4°C 33.2°F0.7°C 88% 8.0 mph SW12.9 kmh SW 11.0 mph17.7 kmh 29.93 in1013.5 mb 0.00 in0.0 mm 0.00 in0.0 mm 0.01 in0.3 mm
05:16 AM 36.4°F2.4°C 33.2°F0.7°C 88% 3.0 mph WSW4.8 kmh WSW 11.0 mph17.7 kmh 29.93 in1013.5 mb 0.00 in0.0 mm 0.00 in0.0 mm 0.01 in0.3 mm
05:21 AM 36.4°F2.4°C 33.2°F0.7°C 88% 4.0 mph SW6.4 kmh SW 11.0 mph17.7 kmh 29.93 in1013.5 mb 0.00 in0.0 mm 0.00 in0.0 mm 0.01 in0.3 mm
05:26 AM 36.4°F2.4°C 33.5°F0.8°C 89% 4.0 mph WSW6.4 kmh WSW 11.0 mph17.7 kmh 29.93 in1013.5 mb 0.00 in0.0 mm 0.00 in0.0 mm 0.01 in0.3 mm
05:31 AM 36.5°F2.5°C 33.6°F0.9°C 89% 5.0 mph WSW8.0 kmh WSW 10.0 mph16.1 kmh 29.93 in1013.5 mb 0.00 in0.0 mm 0.00 in0.0 mm 0.01 in0.3 mm
05:36 AM 36.5°F2.5°C 33.6°F0.9°C 89% 6.0 mph WSW9.7 kmh WSW 10.0 mph16.1 kmh 29.93 in1013.5 mb 0.00 in0.0 mm 0.00 in0.0 mm 0.01 in0.3 mm
05:41 AM 36.5°F2.5°C 33.6°F0.9°C 89% 5.0 mph WSW8.0 kmh WSW 8.0 mph12.9 kmh 29.93 in1013.5 mb 0.00 in0.0 mm 0.00 in0.0 mm 0.01 in0.3 mm
05:46 AM 36.6°F2.6°C 33.7°F0.9°C 89% 7.0 mph SW11.3 kmh SW 11.0 mph17.7 kmh 29.93 in1013.5 mb 0.00 in0.0 mm 0.00 in0.0 mm 0.01 in0.3 mm
05:51 AM 36.6°F2.6°C 33.4°F0.8°C 88% 4.0 mph WSW6.4 kmh WSW 11.0 mph17.7 kmh 29.93 in1013.5 mb 0.00 in0.0 mm 0.00 in0.0 mm 0.01 in0.3 mm
05:56 AM 36.7°F2.6°C 33.8°F1.0°C 89% 9.0 mph SW14.5 kmh SW 11.0 mph17.7 kmh 29.93 in1013.5 mb 0.00 in0.0 mm 0.00 in0.0 mm 0.01 in0.3 mm
06:01 AM 36.8°F2.7°C 33.6°F0.9°C 88% 9.0 mph WSW14.5 kmh WSW 11.0 mph17.7 kmh 29.93 in1013.5 mb 0.00 in0.0 mm 0.00 in0.0 mm 0.01 in0.3 mm
06:06 AM 37.1°F2.8°C 34.2°F1.2°C 89% 5.0 mph WSW8.0 kmh WSW 12.0 mph19.3 kmh 29.93 in1013.5 mb 0.00 in0.0 mm 0.00 in0.0 mm 0.01 in0.3 mm
06:11 AM 37.2°F2.9°C 34.0°F1.1°C 88% 7.0 mph SW11.3 kmh SW 12.0 mph19.3 kmh 29.94 in1013.9 mb 0.00 in0.0 mm 0.00 in0.0 mm 0.01 in0.3 mm
06:16 AM 37.4°F3.0°C 34.2°F1.2°C 88% 10.0 mph WSW16.1 kmh WSW 12.0 mph19.3 kmh 29.93 in1013.5 mb 0.00 in0.0 mm 0.00 in0.0 mm 0.01 in0.3 mm
06:21 AM 37.5°F3.1°C 34.3°F1.3°C 88% 8.0 mph WSW12.9 kmh WSW 17.0 mph27.4 kmh 29.93 in1013.5 mb 0.00 in0.0 mm 0.00 in0.0 mm 0.01 in0.3 mm
06:26 AM 37.6°F3.1°C 34.1°F1.2°C 87% 5.0 mph WSW8.0 kmh WSW 17.0 mph27.4 kmh 29.93 in1013.5 mb 0.00 in0.0 mm 0.00 in0.0 mm 0.01 in0.3 mm
06:31 AM 37.5°F3.1°C 34.0°F1.1°C 87% 7.0 mph WSW11.3 kmh WSW 17.0 mph27.4 kmh 29.93 in1013.5 mb 0.00 in0.0 mm 0.00 in0.0 mm 0.01 in0.3 mm
06:36 AM 37.6°F3.1°C 34.1°F1.2°C 87% 8.0 mph WSW12.9 kmh WSW 17.0 mph27.4 kmh 29.93 in1013.5 mb 0.00 in0.0 mm 0.00 in0.0 mm 0.01 in0.3 mm
06:41 AM 37.6°F3.1°C 34.1°F1.2°C 87% 7.0 mph WSW11.3 kmh WSW 12.0 mph19.3 kmh 29.93 in1013.5 mb 0.00 in0.0 mm 0.00 in0.0 mm 0.01 in0.3 mm
06:46 AM 37.6°F3.1°C 34.1°F1.2°C 87% 7.0 mph WSW11.3 kmh WSW 14.0 mph22.5 kmh 29.93 in1013.5 mb 0.00 in0.0 mm 0.00 in0.0 mm 0.01 in0.3 mm
06:51 AM 37.6°F3.1°C 34.1°F1.2°C 87% 5.0 mph WSW8.0 kmh WSW 14.0 mph22.5 kmh 29.93 in1013.5 mb 0.00 in0.0 mm 0.00 in0.0 mm 0.01 in0.3 mm
06:56 AM 37.6°F3.1°C 34.1°F1.2°C 87% 10.0 mph SW16.1 kmh SW 14.0 mph22.5 kmh 29.93 in1013.5 mb 0.00 in0.0 mm 0.00 in0.0 mm 0.01 in0.3 mm
07:01 AM 37.8°F3.2°C 34.3°F1.3°C 87% 6.0 mph WSW9.7 kmh WSW 15.0 mph24.1 kmh 29.93 in1013.5 mb 0.00 in0.0 mm 0.00 in0.0 mm 0.01 in0.3 mm
07:06 AM 37.8°F3.2°C 34.3°F1.3°C 87% 7.0 mph WSW11.3 kmh WSW 15.0 mph24.1 kmh 29.93 in1013.5 mb 0.00 in0.0 mm 0.00 in0.0 mm 0.01 in0.3 mm
07:11 AM 37.8°F3.2°C 34.3°F1.3°C 87% 10.0 mph W16.1 kmh W 15.0 mph24.1 kmh 29.94 in1013.9 mb 0.00 in0.0 mm 0.00 in0.0 mm 0.01 in0.3 mm
07:16 AM 37.9°F3.3°C 34.4°F1.3°C 87% 11.0 mph W17.7 kmh W 15.0 mph24.1 kmh 29.93 in1013.5 mb 0.00 in0.0 mm 0.00 in0.0 mm 0.01 in0.3 mm
07:21 AM 38.1°F3.4°C 34.6°F1.4°C 87% 8.0 mph WSW12.9 kmh WSW 13.0 mph20.9 kmh 29.93 in1013.5 mb 0.00 in0.0 mm 0.00 in0.0 mm 0.01 in0.3 mm
07:26 AM 38.2°F3.4°C 34.7°F1.5°C 87% 9.0 mph W14.5 kmh W 16.0 mph25.7 kmh 29.93 in1013.5 mb 0.00 in0.0 mm 0.00 in0.0 mm 0.01 in0.3 mm
07:31 AM 38.4°F3.6°C 34.9°F1.6°C 87% 11.0 mph WSW17.7 kmh WSW 16.0 mph25.7 kmh 29.93 in1013.5 mb 0.00 in0.0 mm 0.00 in0.0 mm 0.01 in0.3 mm
07:36 AM 38.5°F3.6°C 35.0°F1.7°C 87% 7.0 mph SW11.3 kmh SW 17.0 mph27.4 kmh 29.93 in1013.5 mb 0.00 in0.0 mm 0.00 in0.0 mm 0.01 in0.3 mm
07:41 AM 38.6°F3.7°C 34.8°F1.6°C 86% 6.0 mph WSW9.7 kmh WSW 17.0 mph27.4 kmh 29.93 in1013.5 mb 0.00 in0.0 mm 0.00 in0.0 mm 0.01 in0.3 mm
07:46 AM 38.6°F3.7°C 34.8°F1.6°C 86% 8.0 mph W12.9 kmh W 17.0 mph27.4 kmh 29.93 in1013.5 mb 0.00 in0.0 mm 0.00 in0.0 mm 0.01 in0.3 mm
07:51 AM 38.6°F3.7°C 34.8°F1.6°C 86% 12.0 mph WSW19.3 kmh WSW 17.0 mph27.4 kmh 29.93 in1013.5 mb 0.00 in0.0 mm 0.00 in0.0 mm 0.01 in0.3 mm
07:56 AM 38.7°F3.7°C 34.9°F1.6°C 86% 9.0 mph WSW14.5 kmh WSW 16.0 mph25.7 kmh 29.93 in1013.5 mb 0.00 in0.0 mm 0.00 in0.0 mm 0.01 in0.3 mm
08:01 AM 38.8°F3.8°C 35.0°F1.7°C 86% 10.0 mph SW16.1 kmh SW 18.0 mph29.0 kmh 29.93 in1013.5 mb 0.00 in0.0 mm 0.00 in0.0 mm 0.01 in0.3 mm
08:06 AM 38.9°F3.8°C 35.1°F1.7°C 86% 13.0 mph SW20.9 kmh SW 18.0 mph29.0 kmh 29.93 in1013.5 mb 0.00 in0.0 mm 0.00 in0.0 mm 0.01 in0.3 mm
08:11 AM 39.0°F3.9°C 35.2°F1.8°C 86% 14.0 mph W22.5 kmh W 21.0 mph33.8 kmh 29.93 in1013.5 mb 0.00 in0.0 mm 0.00 in0.0 mm 0.01 in0.3 mm
08:16 AM 39.2°F4.0°C 35.4°F1.9°C 86% 10.0 mph WSW16.1 kmh WSW 21.0 mph33.8 kmh 29.93 in1013.5 mb 0.00 in0.0 mm 0.00 in0.0 mm 0.01 in0.3 mm
08:21 AM 39.3°F4.1°C 35.5°F1.9°C 86% 9.0 mph WSW14.5 kmh WSW 21.0 mph33.8 kmh 29.93 in1013.5 mb 0.00 in0.0 mm 0.00 in0.0 mm 0.01 in0.3 mm
08:26 AM 39.3°F4.1°C 35.5°F1.9°C 86% 12.0 mph SW19.3 kmh SW 21.0 mph33.8 kmh 29.93 in1013.5 mb 0.00 in0.0 mm 0.00 in0.0 mm 0.01 in0.3 mm
08:31 AM 39.4°F4.1°C 35.6°F2.0°C 86% 9.0 mph WSW14.5 kmh WSW 16.0 mph25.7 kmh 29.93 in1013.5 mb 0.00 in0.0 mm 0.00 in0.0 mm 0.01 in0.3 mm
08:36 AM 39.5°F4.2°C 35.7°F2.1°C 86% 12.0 mph WSW19.3 kmh WSW 19.0 mph30.6 kmh 29.93 in1013.5 mb 0.00 in0.0 mm 0.00 in0.0 mm 0.01 in0.3 mm
08:41 AM 39.5°F4.2°C 35.7°F2.1°C 86% 9.0 mph WSW14.5 kmh WSW 21.0 mph33.8 kmh 29.92 in1013.2 mb 0.00 in0.0 mm 0.00 in0.0 mm 0.01 in0.3 mm
08:46 AM 39.5°F4.2°C 35.7°F2.1°C 86% 12.0 mph W19.3 kmh W 21.0 mph33.8 kmh 29.92 in1013.2 mb 0.00 in0.0 mm 0.00 in0.0 mm 0.01 in0.3 mm
08:51 AM 39.5°F4.2°C 35.7°F2.1°C 86% 14.0 mph WSW22.5 kmh WSW 21.0 mph33.8 kmh 29.92 in1013.2 mb 0.00 in0.0 mm 0.00 in0.0 mm 0.01 in0.3 mm
08:56 AM 39.6°F4.2°C 35.8°F2.1°C 86% 19.0 mph W30.6 kmh W 21.0 mph33.8 kmh 29.92 in1013.2 mb 0.00 in0.0 mm 0.00 in0.0 mm 0.01 in0.3 mm
09:01 AM 39.8°F4.3°C 36.0°F2.2°C 86% 10.0 mph SW16.1 kmh SW 20.0 mph32.2 kmh 29.93 in1013.5 mb 0.00 in0.0 mm 0.00 in0.0 mm 0.01 in0.3 mm
09:06 AM 40.1°F4.5°C 36.3°F2.4°C 86% 12.0 mph WSW19.3 kmh WSW 20.0 mph32.2 kmh 29.93 in1013.5 mb 0.00 in0.0 mm 0.00 in0.0 mm 0.01 in0.3 mm
09:11 AM 40.3°F4.6°C 36.5°F2.5°C 86% 13.0 mph WSW20.9 kmh WSW 19.0 mph30.6 kmh 29.93 in1013.5 mb 0.00 in0.0 mm 0.00 in0.0 mm 0.01 in0.3 mm
09:16 AM 40.5°F4.7°C 36.4°F2.4°C 85% 10.0 mph WSW16.1 kmh WSW 19.0 mph30.6 kmh 29.93 in1013.5 mb 0.00 in0.0 mm 0.00 in0.0 mm 0.01 in0.3 mm
09:21 AM 40.5°F4.7°C 36.4°F2.4°C 85% 12.0 mph WSW19.3 kmh WSW 18.0 mph29.0 kmh 29.93 in1013.5 mb 0.00 in0.0 mm 0.00 in0.0 mm 0.01 in0.3 mm
09:26 AM 40.6°F4.8°C 36.4°F2.4°C 85% 13.0 mph WSW20.9 kmh WSW 18.0 mph29.0 kmh 29.92 in1013.2 mb 0.00 in0.0 mm 0.00 in0.0 mm 0.01 in0.3 mm
09:31 AM 40.7°F4.8°C 36.5°F2.5°C 85% 10.0 mph WSW16.1 kmh WSW 19.0 mph30.6 kmh 29.92 in1013.2 mb 0.00 in0.0 mm 0.00 in0.0 mm 0.01 in0.3 mm
09:36 AM 40.9°F4.9°C 36.7°F2.6°C 85% 15.0 mph WSW24.1 kmh WSW 19.0 mph30.6 kmh 29.92 in1013.2 mb 0.00 in0.0 mm 0.00 in0.0 mm 0.01 in0.3 mm
09:41 AM 40.9°F4.9°C 36.7°F2.6°C 85% 12.0 mph WNW19.3 kmh WNW 19.0 mph30.6 kmh 29.92 in1013.2 mb 0.00 in0.0 mm 0.00 in0.0 mm 0.01 in0.3 mm
09:46 AM 41.3°F5.2°C 37.4°F3.0°C 86% 13.0 mph SSW20.9 kmh SSW 19.0 mph30.6 kmh 29.91 in1012.9 mb 0.00 in0.0 mm 0.00 in0.0 mm 0.01 in0.3 mm
09:51 AM 41.6°F5.3°C 37.4°F3.0°C 85% 10.0 mph WSW16.1 kmh WSW 19.0 mph30.6 kmh 29.91 in1012.9 mb 0.00 in0.0 mm 0.00 in0.0 mm 0.01 in0.3 mm
09:56 AM 41.6°F5.3°C 37.7°F3.2°C 86% 14.0 mph SW22.5 kmh SW 20.0 mph32.2 kmh 29.91 in1012.9 mb 0.00 in0.0 mm 0.00 in0.0 mm 0.01 in0.3 mm
10:01 AM 41.8°F5.4°C 37.9°F3.3°C 86% 14.0 mph W22.5 kmh W 20.0 mph32.2 kmh 29.91 in1012.9 mb 0.00 in0.0 mm 0.00 in0.0 mm 0.01 in0.3 mm
10:06 AM 42.0°F5.6°C 38.1°F3.4°C 86% 10.0 mph WSW16.1 kmh WSW 22.0 mph35.4 kmh 29.91 in1012.9 mb 0.00 in0.0 mm 0.00 in0.0 mm 0.01 in0.3 mm
10:11 AM 42.0°F5.6°C 38.1°F3.4°C 86% 13.0 mph WSW20.9 kmh WSW 23.0 mph37.0 kmh 29.90 in1012.5 mb 0.00 in0.0 mm 0.00 in0.0 mm 0.01 in0.3 mm
10:16 AM 41.9°F5.5°C 38.0°F3.3°C 86% 9.0 mph WSW14.5 kmh WSW 23.0 mph37.0 kmh 29.91 in1012.9 mb 0.00 in0.0 mm 0.00 in0.0 mm 0.01 in0.3 mm
10:21 AM 42.0°F5.6°C 38.4°F3.6°C 87% 14.0 mph WSW22.5 kmh WSW 23.0 mph37.0 kmh 29.90 in1012.5 mb 0.00 in0.0 mm 0.00 in0.0 mm 0.01 in0.3 mm
10:26 AM 42.4°F5.8°C 39.1°F3.9°C 88% 13.0 mph W20.9 kmh W 23.0 mph37.0 kmh 29.90 in1012.5 mb 0.00 in0.0 mm 0.00 in0.0 mm 0.01 in0.3 mm
10:31 AM 42.9°F6.1°C 39.3°F4.1°C 87% 13.0 mph WSW20.9 kmh WSW 21.0 mph33.8 kmh 29.90 in1012.5 mb 0.00 in0.0 mm 0.00 in0.0 mm 0.01 in0.3 mm
10:36 AM 43.3°F6.3°C 39.4°F4.1°C 86% 14.0 mph WSW22.5 kmh WSW 22.0 mph35.4 kmh 29.90 in1012.5 mb 0.00 in0.0 mm 0.00 in0.0 mm 0.01 in0.3 mm
10:41 AM 43.3°F6.3°C 39.7°F4.3°C 87% 13.0 mph SSW20.9 kmh SSW 23.0 mph37.0 kmh 29.90 in1012.5 mb 0.00 in0.0 mm 0.00 in0.0 mm 0.01 in0.3 mm
10:46 AM 43.4°F6.3°C 39.8°F4.3°C 87% 12.0 mph WSW19.3 kmh WSW 23.0 mph37.0 kmh 29.90 in1012.5 mb 0.00 in0.0 mm 0.00 in0.0 mm 0.01 in0.3 mm
10:51 AM 43.6°F6.4°C 40.0°F4.4°C 87% 14.0 mph W22.5 kmh W 24.0 mph38.6 kmh 29.90 in1012.5 mb 0.00 in0.0 mm 0.00 in0.0 mm 0.01 in0.3 mm
10:56 AM 43.8°F6.6°C 40.2°F4.6°C 87% 10.0 mph SW16.1 kmh SW 24.0 mph38.6 kmh 29.90 in1012.5 mb 0.00 in0.0 mm 0.00 in0.0 mm 0.01 in0.3 mm
11:01 AM 43.9°F6.6°C 40.0°F4.4°C 86% 15.0 mph SW24.1 kmh SW 24.0 mph38.6 kmh 29.90 in1012.5 mb 0.00 in0.0 mm 0.00 in0.0 mm 0.01 in0.3 mm
11:06 AM 43.5°F6.4°C 39.6°F4.2°C 86% 12.0 mph SW19.3 kmh SW 24.0 mph38.6 kmh 29.90 in1012.5 mb 0.00 in0.0 mm 0.00 in0.0 mm 0.01 in0.3 mm
11:11 AM 43.3°F6.3°C 39.4°F4.1°C 86% 11.0 mph SW17.7 kmh SW 29.0 mph46.7 kmh 29.91 in1012.9 mb 0.00 in0.0 mm 0.00 in0.0 mm 0.01 in0.3 mm
11:16 AM 43.4°F6.3°C 40.1°F4.5°C 88% 13.0 mph WSW20.9 kmh WSW 29.0 mph46.7 kmh 29.91 in1012.9 mb 0.00 in0.0 mm 0.00 in0.0 mm 0.01 in0.3 mm
11:21 AM 43.4°F6.3°C 40.1°F4.5°C 88% 15.0 mph WSW24.1 kmh WSW 29.0 mph46.7 kmh 29.90 in1012.5 mb 0.00 in0.0 mm 0.00 in0.0 mm 0.01 in0.3 mm
11:26 AM 43.3°F6.3°C 40.0°F4.4°C 88% 10.0 mph WSW16.1 kmh WSW 29.0 mph46.7 kmh 29.90 in1012.5 mb 0.00 in0.0 mm 0.00 in0.0 mm 0.01 in0.3 mm
11:31 AM 43.5°F6.4°C 40.2°F4.6°C 88% 7.0 mph WSW11.3 kmh WSW 21.0 mph33.8 kmh 29.90 in1012.5 mb 0.00 in0.0 mm 0.00 in0.0 mm 0.01 in0.3 mm
11:36 AM 44.0°F6.7°C 40.7°F4.8°C 88% 7.0 mph WSW11.3 kmh WSW 21.0 mph33.8 kmh 29.90 in1012.5 mb 0.00 in0.0 mm 0.00 in0.0 mm 0.01 in0.3 mm
11:41 AM 44.6°F7.0°C 41.3°F5.2°C 88% 12.0 mph SW19.3 kmh SW 21.0 mph33.8 kmh 29.89 in1012.2 mb 0.00 in0.0 mm 0.00 in0.0 mm 0.01 in0.3 mm
11:46 AM 44.7°F7.1°C 41.1°F5.1°C 87% 9.0 mph WSW14.5 kmh WSW 21.0 mph33.8 kmh 29.89 in1012.2 mb 0.00 in0.0 mm 0.00 in0.0 mm 0.01 in0.3 mm
11:51 AM 44.7°F7.1°C 40.8°F4.9°C 86% 12.0 mph W19.3 kmh W 21.0 mph33.8 kmh 29.89 in1012.2 mb 0.00 in0.0 mm 0.00 in0.0 mm 0.01 in0.3 mm
11:56 AM 45.1°F7.3°C 41.5°F5.3°C 87% 18.0 mph WSW29.0 kmh WSW 21.0 mph33.8 kmh 29.89 in1012.2 mb 0.00 in0.0 mm 0.00 in0.0 mm 0.01 in0.3 mm
12:01 PM 45.0°F7.2°C 41.1°F5.1°C 86% 13.0 mph W20.9 kmh W 23.0 mph37.0 kmh 29.89 in1012.2 mb 0.00 in0.0 mm 0.00 in0.0 mm 0.01 in0.3 mm
12:06 PM 45.3°F7.4°C 41.1°F5.1°C 85% 15.0 mph W24.1 kmh W 23.0 mph37.0 kmh 29.89 in1012.2 mb 0.00 in0.0 mm 0.00 in0.0 mm 0.01 in0.3 mm
12:11 PM 45.7°F7.6°C 41.5°F5.3°C 85% 20.0 mph WSW32.2 kmh WSW 23.0 mph37.0 kmh 29.88 in1011.9 mb 0.00 in0.0 mm 0.00 in0.0 mm 0.01 in0.3 mm
12:16 PM 45.8°F7.7°C 41.2°F5.1°C 84% 7.0 mph W11.3 kmh W 23.0 mph37.0 kmh 29.88 in1011.9 mb 0.00 in0.0 mm 0.00 in0.0 mm 0.01 in0.3 mm
12:21 PM 46.1°F7.8°C 41.5°F5.3°C 84% 5.0 mph W8.0 kmh W 22.0 mph35.4 kmh 29.87 in1011.5 mb 0.00 in0.0 mm 0.00 in0.0 mm 0.01 in0.3 mm
12:26 PM 46.3°F7.9°C 41.4°F5.2°C 83% 16.0 mph WSW25.7 kmh WSW 24.0 mph38.6 kmh 29.87 in1011.5 mb 0.00 in0.0 mm 0.00 in0.0 mm 0.01 in0.3 mm
12:31 PM 46.5°F8.1°C 41.3°F5.2°C 82% 13.0 mph W20.9 kmh W 28.0 mph45.1 kmh 29.87 in1011.5 mb 0.00 in0.0 mm 0.00 in0.0 mm 0.01 in0.3 mm
12:36 PM 46.8°F8.2°C 41.6°F5.3°C 82% 16.0 mph WSW25.7 kmh WSW 28.0 mph45.1 kmh 29.87 in1011.5 mb 0.00 in0.0 mm 0.00 in0.0 mm 0.01 in0.3 mm
12:41 PM 46.6°F8.1°C 41.1°F5.1°C 81% 13.0 mph W20.9 kmh W 28.0 mph45.1 kmh 29.86 in1011.2 mb 0.00 in0.0 mm 0.00 in0.0 mm 0.01 in0.3 mm
12:46 PM 46.6°F8.1°C 41.4°F5.2°C 82% 14.0 mph WSW22.5 kmh WSW 28.0 mph45.1 kmh 29.86 in1011.2 mb 0.00 in0.0 mm 0.00 in0.0 mm 0.01 in0.3 mm
12:51 PM 46.5°F8.1°C 41.0°F5.0°C 81% 11.0 mph WSW17.7 kmh WSW 22.0 mph35.4 kmh 29.86 in1011.2 mb 0.00 in0.0 mm 0.00 in0.0 mm 0.01 in0.3 mm
12:56 PM 46.4°F8.0°C 40.6°F4.8°C 80% 15.0 mph WSW24.1 kmh WSW 22.0 mph35.4 kmh 29.86 in1011.2 mb 0.00 in0.0 mm 0.00 in0.0 mm 0.01 in0.3 mm
01:01 PM 46.4°F8.0°C 40.6°F4.8°C 80% 19.0 mph SW30.6 kmh SW 22.0 mph35.4 kmh 29.86 in1011.2 mb 0.00 in0.0 mm 0.00 in0.0 mm 0.01 in0.3 mm
01:06 PM 46.5°F8.1°C 40.7°F4.8°C 80% 14.0 mph W22.5 kmh W 24.0 mph38.6 kmh 29.86 in1011.2 mb 0.00 in0.0 mm 0.00 in0.0 mm 0.01 in0.3 mm
01:11 PM 46.9°F8.3°C 40.7°F4.8°C 79% 16.0 mph W25.7 kmh W 29.0 mph46.7 kmh 29.86 in1011.2 mb 0.00 in0.0 mm 0.00 in0.0 mm 0.01 in0.3 mm
01:16 PM 47.4°F8.6°C 41.2°F5.1°C 79% 12.0 mph WSW19.3 kmh WSW 29.0 mph46.7 kmh 29.85 in1010.8 mb 0.00 in0.0 mm 0.00 in0.0 mm 0.01 in0.3 mm
01:21 PM 47.6°F8.7°C 41.1°F5.1°C 78% 18.0 mph W29.0 kmh W 32.0 mph51.5 kmh 29.84 in1010.5 mb 0.00 in0.0 mm 0.00 in0.0 mm 0.01 in0.3 mm
01:26 PM 47.9°F8.8°C 41.4°F5.2°C 78% 13.0 mph W20.9 kmh W 32.0 mph51.5 kmh 29.84 in1010.5 mb 0.00 in0.0 mm 0.00 in0.0 mm 0.01 in0.3 mm
01:31 PM 47.7°F8.7°C 41.5°F5.3°C 79% 13.0 mph W20.9 kmh W 32.0 mph51.5 kmh 29.84 in1010.5 mb 0.00 in0.0 mm 0.00 in0.0 mm 0.01 in0.3 mm
01:36 PM 47.7°F8.7°C 41.2°F5.1°C 78% 11.0 mph WSW17.7 kmh WSW 32.0 mph51.5 kmh 29.84 in1010.5 mb 0.00 in0.0 mm 0.00 in0.0 mm 0.01 in0.3 mm
01:41 PM 47.6°F8.7°C 41.1°F5.1°C 78% 22.0 mph W35.4 kmh W 30.0 mph48.3 kmh 29.83 in1010.2 mb 0.00 in0.0 mm 0.00 in0.0 mm 0.01 in0.3 mm
01:46 PM 47.7°F8.7°C 41.2°F5.1°C 78% 14.0 mph W22.5 kmh W 30.0 mph48.3 kmh 29.84 in1010.5 mb 0.00 in0.0 mm 0.00 in0.0 mm 0.01 in0.3 mm
01:51 PM 47.2°F8.4°C 41.0°F5.0°C 79% 23.0 mph WSW37.0 kmh WSW 30.0 mph48.3 kmh 29.84 in1010.5 mb 0.00 in0.0 mm 0.00 in0.0 mm 0.01 in0.3 mm
01:56 PM 46.5°F8.1°C 41.3°F5.2°C 82% 12.0 mph WSW19.3 kmh WSW 30.0 mph48.3 kmh 29.84 in1010.5 mb 0.00 in0.0 mm 0.00 in0.0 mm 0.01 in0.3 mm
02:01 PM 45.9°F7.7°C 41.3°F5.2°C 84% 13.0 mph W20.9 kmh W 25.0 mph40.2 kmh 29.83 in1010.2 mb 0.00 in0.0 mm 0.00 in0.0 mm 0.01 in0.3 mm
02:06 PM 45.8°F7.7°C 41.6°F5.3°C 85% 11.0 mph W17.7 kmh W 25.0 mph40.2 kmh 29.83 in1010.2 mb 0.00 in0.0 mm 0.00 in0.0 mm 0.01 in0.3 mm
02:11 PM 45.9°F7.7°C 41.6°F5.3°C 85% 10.0 mph SW16.1 kmh SW 21.0 mph33.8 kmh 29.82 in1009.8 mb 0.00 in0.0 mm 0.00 in0.0 mm 0.01 in0.3 mm
02:16 PM 46.3°F7.9°C 41.1°F5.1°C 82% 19.0 mph W30.6 kmh W 25.0 mph40.2 kmh 29.82 in1009.8 mb 0.00 in0.0 mm 0.00 in0.0 mm 0.01 in0.3 mm
02:21 PM 46.6°F8.1°C 41.1°F5.1°C 81% 13.0 mph WSW20.9 kmh WSW 25.0 mph40.2 kmh 29.82 in1009.8 mb 0.00 in0.0 mm 0.00 in0.0 mm 0.01 in0.3 mm
02:26 PM 46.7°F8.2°C 40.9°F4.9°C 80% 13.0 mph WSW20.9 kmh WSW 25.0 mph40.2 kmh 29.82 in1009.8 mb 0.00 in0.0 mm 0.00 in0.0 mm 0.01 in0.3 mm
02:31 PM 46.7°F8.2°C 40.5°F4.7°C 79% 11.0 mph SW17.7 kmh SW 26.0 mph41.8 kmh 29.81 in1009.5 mb 0.00 in0.0 mm 0.00 in0.0 mm 0.01 in0.3 mm
02:36 PM 46.7°F8.2°C 40.9°F4.9°C 80% 9.0 mph W14.5 kmh W 26.0 mph41.8 kmh 29.81 in1009.5 mb 0.00 in0.0 mm 0.00 in0.0 mm 0.01 in0.3 mm
02:41 PM 46.9°F8.3°C 41.1°F5.1°C 80% 15.0 mph W24.1 kmh W 26.0 mph41.8 kmh 29.81 in1009.5 mb 0.00 in0.0 mm 0.00 in0.0 mm 0.01 in0.3 mm
02:46 PM 47.1°F8.4°C 40.6°F4.8°C 78% 10.0 mph WSW16.1 kmh WSW 26.0 mph41.8 kmh 29.80 in1009.1 mb 0.00 in0.0 mm 0.00 in0.0 mm 0.01 in0.3 mm
02:51 PM 47.1°F8.4°C 40.9°F4.9°C 79% 11.0 mph WSW17.7 kmh WSW 22.0 mph35.4 kmh 29.80 in1009.1 mb 0.00 in0.0 mm 0.00 in0.0 mm 0.01 in0.3 mm
02:56 PM 46.8°F8.2°C 41.0°F5.0°C 80% 20.0 mph W32.2 kmh W 23.0 mph37.0 kmh 29.80 in1009.1 mb 0.00 in0.0 mm 0.00 in0.0 mm 0.01 in0.3 mm
03:01 PM 46.2°F7.9°C 40.7°F4.8°C 81% 9.0 mph W14.5 kmh W 24.0 mph38.6 kmh 29.81 in1009.5 mb 0.00 in0.0 mm 0.00 in0.0 mm 0.01 in0.3 mm
03:06 PM 45.5°F7.5°C 41.0°F5.0°C 84% 10.0 mph NW16.1 kmh NW 24.0 mph38.6 kmh 29.81 in1009.5 mb 0.23 in5.8 mm 2.76 in70.1 mm 0.02 in0.5 mm
03:11 PM 44.8°F7.1°C 40.9°F4.9°C 86% 10.0 mph W16.1 kmh W 24.0 mph38.6 kmh 29.81 in1009.5 mb 0.09 in2.3 mm 0.00 in0.0 mm 0.02 in0.5 mm
03:16 PM 44.3°F6.8°C 40.7°F4.8°C 87% 12.0 mph WNW19.3 kmh WNW 24.0 mph38.6 kmh 29.80 in1009.1 mb 0.06 in1.5 mm 0.00 in0.0 mm 0.03 in0.8 mm
03:21 PM 44.0°F6.7°C 40.7°F4.8°C 88% 6.0 mph W9.7 kmh W 15.0 mph24.1 kmh 29.81 in1009.5 mb 0.11 in2.8 mm 0.60 in15.2 mm 0.04 in1.0 mm
03:26 PM 43.9°F6.6°C 40.9°F4.9°C 89% 9.0 mph W14.5 kmh W 17.0 mph27.4 kmh 29.81 in1009.5 mb 0.06 in1.5 mm 0.00 in0.0 mm 0.04 in1.0 mm
03:31 PM 44.0°F6.7°C 41.0°F5.0°C 89% 9.0 mph WSW14.5 kmh WSW 18.0 mph29.0 kmh 29.81 in1009.5 mb 0.04 in1.0 mm 0.00 in0.0 mm 0.04 in1.0 mm
03:36 PM 44.1°F6.7°C 40.8°F4.9°C 88% 13.0 mph W20.9 kmh W 22.0 mph35.4 kmh 29.80 in1009.1 mb 0.00 in0.0 mm 0.00 in0.0 mm 0.04 in1.0 mm
03:41 PM 44.3°F6.8°C 40.7°F4.8°C 87% 11.0 mph WSW17.7 kmh WSW 22.0 mph35.4 kmh 29.81 in1009.5 mb 0.00 in0.0 mm 0.00 in0.0 mm 0.04 in1.0 mm
03:46 PM 43.9°F6.6°C 40.3°F4.6°C 87% 9.0 mph WNW14.5 kmh WNW 22.0 mph35.4 kmh 29.81 in1009.5 mb 0.16 in4.1 mm 1.92 in48.8 mm 0.06 in1.5 mm
03:51 PM 43.2°F6.2°C 39.6°F4.2°C 87% 13.0 mph W20.9 kmh W 24.0 mph38.6 kmh 29.81 in1009.5 mb 0.06 in1.5 mm 0.00 in0.0 mm 0.06 in1.5 mm
03:56 PM 42.8°F6.0°C 39.2°F4.0°C 87% 12.0 mph W19.3 kmh W 24.0 mph38.6 kmh 29.81 in1009.5 mb 0.04 in1.0 mm 0.00 in0.0 mm 0.06 in1.5 mm
04:01 PM 42.1°F5.6°C 38.8°F3.8°C 88% 16.0 mph W25.7 kmh W 28.0 mph45.1 kmh 29.81 in1009.5 mb 0.12 in3.0 mm 0.09 in2.3 mm 0.07 in1.8 mm
04:06 PM 41.3°F5.2°C 38.0°F3.3°C 88% 19.0 mph W30.6 kmh W 28.0 mph45.1 kmh 29.81 in1009.5 mb 0.28 in7.1 mm 1.92 in48.8 mm 0.09 in2.3 mm
04:11 PM 40.8°F4.9°C 37.8°F3.2°C 89% 15.0 mph NW24.1 kmh NW 28.0 mph45.1 kmh 29.80 in1009.1 mb 0.28 in7.1 mm 0.00 in0.0 mm 0.10 in2.5 mm
04:16 PM 40.7°F4.8°C 38.0°F3.3°C 90% 12.0 mph WNW19.3 kmh WNW 28.0 mph45.1 kmh 29.81 in1009.5 mb 0.08 in2.0 mm 0.00 in0.0 mm 0.10 in2.5 mm
04:21 PM 40.8°F4.9°C 38.1°F3.4°C 90% 9.0 mph NW14.5 kmh NW 22.0 mph35.4 kmh 29.80 in1009.1 mb 0.04 in1.0 mm 0.00 in0.0 mm 0.10 in2.5 mm
04:26 PM 40.9°F4.9°C 38.2°F3.4°C 90% 7.0 mph NW11.3 kmh NW 22.0 mph35.4 kmh 29.80 in1009.1 mb 0.04 in1.0 mm 0.00 in0.0 mm 0.11 in2.8 mm
04:31 PM 41.1°F5.1°C 38.4°F3.6°C 90% 6.0 mph NW9.7 kmh NW 20.0 mph32.2 kmh 29.80 in1009.1 mb 0.04 in1.0 mm 0.00 in0.0 mm 0.11 in2.8 mm
04:36 PM 41.3°F5.2°C 38.6°F3.7°C 90% 12.0 mph W19.3 kmh W 20.0 mph32.2 kmh 29.80 in1009.1 mb 0.04 in1.0 mm 0.00 in0.0 mm 0.12 in3.0 mm
04:41 PM 41.4°F5.2°C 38.7°F3.7°C 90% 10.0 mph W16.1 kmh W 17.0 mph27.4 kmh 29.80 in1009.1 mb 0.04 in1.0 mm 0.00 in0.0 mm 0.12 in3.0 mm
04:46 PM 41.5°F5.3°C 38.8°F3.8°C 90% 16.0 mph NW25.7 kmh NW 17.0 mph27.4 kmh 29.80 in1009.1 mb 0.03 in0.8 mm 0.00 in0.0 mm 0.12 in3.0 mm
04:51 PM 41.4°F5.2°C 38.7°F3.7°C 90% 9.0 mph WNW14.5 kmh WNW 16.0 mph25.7 kmh 29.80 in1009.1 mb 0.00 in0.0 mm 0.00 in0.0 mm 0.12 in3.0 mm
04:56 PM 41.4°F5.2°C 38.4°F3.6°C 89% 8.0 mph WNW12.9 kmh WNW 16.0 mph25.7 kmh 29.80 in1009.1 mb 0.00 in0.0 mm 0.00 in0.0 mm 0.12 in3.0 mm
05:01 PM 41.4°F5.2°C 38.4°F3.6°C 89% 6.0 mph WNW9.7 kmh WNW 14.0 mph22.5 kmh 29.80 in1009.1 mb 0.00 in0.0 mm 0.00 in0.0 mm 0.12 in3.0 mm
05:06 PM 41.4°F5.2°C 38.4°F3.6°C 89% 11.0 mph W17.7 kmh W 14.0 mph22.5 kmh 29.80 in1009.1 mb 0.00 in0.0 mm 0.00 in0.0 mm 0.12 in3.0 mm
05:11 PM 41.4°F5.2°C 38.4°F3.6°C 89% 3.0 mph W4.8 kmh W 11.0 mph17.7 kmh 29.80 in1009.1 mb 0.00 in0.0 mm 0.00 in0.0 mm 0.12 in3.0 mm
05:16 PM 41.3°F5.2°C 38.3°F3.5°C 89% 6.0 mph W9.7 kmh W 11.0 mph17.7 kmh 29.80 in1009.1 mb 0.00 in0.0 mm 0.00 in0.0 mm 0.12 in3.0 mm
05:21 PM 41.3°F5.2°C 38.3°F3.5°C 89% 6.0 mph WNW9.7 kmh WNW 11.0 mph17.7 kmh 29.80 in1009.1 mb 0.00 in0.0 mm 0.00 in0.0 mm 0.12 in3.0 mm
05:26 PM 41.2°F5.1°C 38.2°F3.4°C 89% 6.0 mph W9.7 kmh W 11.0 mph17.7 kmh 29.80 in1009.1 mb 0.00 in0.0 mm 0.00 in0.0 mm 0.12 in3.0 mm
05:31 PM 41.2°F5.1°C 38.2°F3.4°C 89% 5.0 mph W8.0 kmh W 11.0 mph17.7 kmh 29.80 in1009.1 mb 0.00 in0.0 mm 0.00 in0.0 mm 0.12 in3.0 mm
05:36 PM 41.1°F5.1°C 38.1°F3.4°C 89% 5.0 mph W8.0 kmh W 12.0 mph19.3 kmh 29.80 in1009.1 mb 0.00 in0.0 mm 0.00 in0.0 mm 0.12 in3.0 mm
05:41 PM 41.1°F5.1°C 38.4°F3.6°C 90% 11.0 mph WSW17.7 kmh WSW 12.0 mph19.3 kmh 29.81 in1009.5 mb 0.00 in0.0 mm 0.00 in0.0 mm 0.12 in3.0 mm
05:46 PM 41.0°F5.0°C 38.3°F3.5°C 90% 10.0 mph WSW16.1 kmh WSW 12.0 mph19.3 kmh 29.81 in1009.5 mb 0.00 in0.0 mm 0.00 in0.0 mm 0.12 in3.0 mm
05:51 PM 41.0°F5.0°C 38.3°F3.5°C 90% 7.0 mph W11.3 kmh W 12.0 mph19.3 kmh 29.81 in1009.5 mb 0.00 in0.0 mm 0.00 in0.0 mm 0.12 in3.0 mm
05:56 PM 40.9°F4.9°C 38.2°F3.4°C 90% 8.0 mph WSW12.9 kmh WSW 11.0 mph17.7 kmh 29.81 in1009.5 mb 0.00 in0.0 mm 0.00 in0.0 mm 0.12 in3.0 mm
06:01 PM 40.8°F4.9°C 38.1°F3.4°C 90% 9.0 mph WSW14.5 kmh WSW 11.0 mph17.7 kmh 29.81 in1009.5 mb 0.00 in0.0 mm 0.00 in0.0 mm 0.12 in3.0 mm
06:06 PM 40.8°F4.9°C 37.8°F3.2°C 89% 6.0 mph WSW9.7 kmh WSW 11.0 mph17.7 kmh 29.81 in1009.5 mb 0.00 in0.0 mm 0.00 in0.0 mm 0.12 in3.0 mm
06:11 PM 40.7°F4.8°C 38.0°F3.3°C 90% 7.0 mph WSW11.3 kmh WSW 11.0 mph17.7 kmh 29.81 in1009.5 mb 0.00 in0.0 mm 0.00 in0.0 mm 0.12 in3.0 mm
06:16 PM 40.6°F4.8°C 37.9°F3.3°C 90% 7.0 mph WSW11.3 kmh WSW 11.0 mph17.7 kmh 29.81 in1009.5 mb 0.00 in0.0 mm 0.00 in0.0 mm 0.12 in3.0 mm
06:21 PM 40.5°F4.7°C 37.8°F3.2°C 90% 6.0 mph WSW9.7 kmh WSW 11.0 mph17.7 kmh 29.82 in1009.8 mb 0.00 in0.0 mm 0.00 in0.0 mm 0.12 in3.0 mm
06:26 PM 40.6°F4.8°C 37.9°F3.3°C 90% 5.0 mph W8.0 kmh W 12.0 mph19.3 kmh 29.82 in1009.8 mb 0.00 in0.0 mm 0.00 in0.0 mm 0.12 in3.0 mm
06:31 PM 40.7°F4.8°C 38.0°F3.3°C 90% 9.0 mph WSW14.5 kmh WSW 12.0 mph19.3 kmh 29.82 in1009.8 mb 0.00 in0.0 mm 0.00 in0.0 mm 0.12 in3.0 mm
06:36 PM 40.8°F4.9°C 37.8°F3.2°C 89% 9.0 mph WSW14.5 kmh WSW 14.0 mph22.5 kmh 29.82 in1009.8 mb 0.00 in0.0 mm 0.00 in0.0 mm 0.12 in3.0 mm
06:41 PM 40.9°F4.9°C 37.9°F3.3°C 89% 6.0 mph WSW9.7 kmh WSW 14.0 mph22.5 kmh 29.82 in1009.8 mb 0.00 in0.0 mm 0.00 in0.0 mm 0.12 in3.0 mm
06:46 PM 41.0°F5.0°C 38.0°F3.3°C 89% 8.0 mph W12.9 kmh W 14.0 mph22.5 kmh 29.82 in1009.8 mb 0.00 in0.0 mm 0.00 in0.0 mm 0.12 in3.0 mm
06:51 PM 41.0°F5.0°C 37.7°F3.2°C 88% 6.0 mph WSW9.7 kmh WSW 14.0 mph22.5 kmh 29.82 in1009.8 mb 0.00 in0.0 mm 0.00 in0.0 mm 0.12 in3.0 mm
06:56 PM 41.0°F5.0°C 37.7°F3.2°C 88% 9.0 mph W14.5 kmh W 14.0 mph22.5 kmh 29.82 in1009.8 mb 0.00 in0.0 mm 0.00 in0.0 mm 0.12 in3.0 mm
07:01 PM 41.0°F5.0°C 38.0°F3.3°C 89% 5.0 mph W8.0 kmh W 14.0 mph22.5 kmh 29.82 in1009.8 mb 0.00 in0.0 mm 0.00 in0.0 mm 0.12 in3.0 mm
07:06 PM 40.9°F4.9°C 37.9°F3.3°C 89% 8.0 mph WSW12.9 kmh WSW 14.0 mph22.5 kmh 29.82 in1009.8 mb 0.00 in0.0 mm 0.00 in0.0 mm 0.12 in3.0 mm
07:11 PM 41.0°F5.0°C 38.0°F3.3°C 89% 9.0 mph WSW14.5 kmh WSW 14.0 mph22.5 kmh 29.83 in1010.2 mb 0.00 in0.0 mm 0.00 in0.0 mm 0.12 in3.0 mm
07:16 PM 41.0°F5.0°C 37.7°F3.2°C 88% 8.0 mph W12.9 kmh W 13.0 mph20.9 kmh 29.83 in1010.2 mb 0.00 in0.0 mm 0.00 in0.0 mm 0.12 in3.0 mm
07:21 PM 41.1°F5.1°C 37.8°F3.2°C 88% 7.0 mph WSW11.3 kmh WSW 13.0 mph20.9 kmh 29.84 in1010.5 mb 0.00 in0.0 mm 0.00 in0.0 mm 0.12 in3.0 mm
07:26 PM 41.1°F5.1°C 38.1°F3.4°C 89% 11.0 mph WNW17.7 kmh WNW 23.0 mph37.0 kmh 29.85 in1010.8 mb 0.00 in0.0 mm 0.00 in0.0 mm 0.13 in3.3 mm
07:31 PM 40.3°F4.6°C 37.0°F2.8°C 88% 9.0 mph WNW14.5 kmh WNW 23.0 mph37.0 kmh 29.85 in1010.8 mb 0.00 in0.0 mm 0.00 in0.0 mm 0.13 in3.3 mm
07:36 PM 39.5°F4.2°C 36.0°F2.2°C 87% 11.0 mph NW17.7 kmh NW 23.0 mph37.0 kmh 29.84 in1010.5 mb 0.00 in0.0 mm 0.00 in0.0 mm 0.13 in3.3 mm
07:41 PM 38.9°F3.8°C 35.7°F2.1°C 88% 8.0 mph WNW12.9 kmh WNW 23.0 mph37.0 kmh 29.84 in1010.5 mb 0.00 in0.0 mm 0.00 in0.0 mm 0.13 in3.3 mm
07:46 PM 38.6°F3.7°C 35.4°F1.9°C 88% 10.0 mph WNW16.1 kmh WNW 16.0 mph25.7 kmh 29.84 in1010.5 mb 0.00 in0.0 mm 0.00 in0.0 mm 0.13 in3.3 mm
07:51 PM 38.3°F3.5°C 35.1°F1.7°C 88% 6.0 mph WNW9.7 kmh WNW 16.0 mph25.7 kmh 29.84 in1010.5 mb 0.00 in0.0 mm 0.00 in0.0 mm 0.13 in3.3 mm
07:56 PM 38.2°F3.4°C 35.2°F1.8°C 89% 8.0 mph NW12.9 kmh NW 16.0 mph25.7 kmh 29.84 in1010.5 mb 0.00 in0.0 mm 0.00 in0.0 mm 0.13 in3.3 mm
08:01 PM 38.0°F3.3°C 34.8°F1.6°C 88% 8.0 mph WNW12.9 kmh WNW 16.0 mph25.7 kmh 29.84 in1010.5 mb 0.00 in0.0 mm 0.00 in0.0 mm 0.13 in3.3 mm
08:06 PM 37.8°F3.2°C 34.9°F1.6°C 89% 9.0 mph WNW14.5 kmh WNW 14.0 mph22.5 kmh 29.84 in1010.5 mb 0.00 in0.0 mm 0.00 in0.0 mm 0.13 in3.3 mm
08:11 PM 37.7°F3.2°C 34.8°F1.6°C 89% 4.0 mph WNW6.4 kmh WNW 14.0 mph22.5 kmh 29.84 in1010.5 mb 0.00 in0.0 mm 0.00 in0.0 mm 0.13 in3.3 mm
08:16 PM 37.5°F3.1°C 34.6°F1.4°C 89% 4.0 mph WNW6.4 kmh WNW 13.0 mph20.9 kmh 29.84 in1010.5 mb 0.00 in0.0 mm 0.00 in0.0 mm 0.13 in3.3 mm
08:21 PM 37.3°F2.9°C 34.4°F1.3°C 89% 5.0 mph WNW8.0 kmh WNW 13.0 mph20.9 kmh 29.85 in1010.8 mb 0.00 in0.0 mm 0.00 in0.0 mm 0.13 in3.3 mm
08:26 PM 37.2°F2.9°C 34.3°F1.3°C 89% 5.0 mph WNW8.0 kmh WNW 11.0 mph17.7 kmh 29.85 in1010.8 mb 0.00 in0.0 mm 0.00 in0.0 mm 0.13 in3.3 mm
08:31 PM 37.3°F2.9°C 34.4°F1.3°C 89% 6.0 mph WNW9.7 kmh WNW 11.0 mph17.7 kmh 29.85 in1010.8 mb 0.00 in0.0 mm 0.00 in0.0 mm 0.13 in3.3 mm
08:36 PM 37.2°F2.9°C 34.3°F1.3°C 89% 4.0 mph W6.4 kmh W 11.0 mph17.7 kmh 29.85 in1010.8 mb 0.00 in0.0 mm 0.00 in0.0 mm 0.13 in3.3 mm
08:41 PM 37.3°F2.9°C 34.6°F1.4°C 90% 4.0 mph W6.4 kmh W 11.0 mph17.7 kmh 29.85 in1010.8 mb 0.00 in0.0 mm 0.00 in0.0 mm 0.13 in3.3 mm
08:46 PM 37.3°F2.9°C 34.6°F1.4°C 90% 5.0 mph W8.0 kmh W 11.0 mph17.7 kmh 29.85 in1010.8 mb 0.00 in0.0 mm 0.00 in0.0 mm 0.13 in3.3 mm
08:51 PM 37.2°F2.9°C 34.5°F1.4°C 90% 8.0 mph WNW12.9 kmh WNW 12.0 mph19.3 kmh 29.84 in1010.5 mb 0.00 in0.0 mm 0.00 in0.0 mm 0.13 in3.3 mm
08:56 PM 37.3°F2.9°C 34.6°F1.4°C 90% 9.0 mph WNW14.5 kmh WNW 14.0 mph22.5 kmh 29.85 in1010.8 mb 0.00 in0.0 mm 0.00 in0.0 mm 0.13 in3.3 mm
09:01 PM 37.3°F2.9°C 34.4°F1.3°C 89% 6.0 mph WNW9.7 kmh WNW 14.0 mph22.5 kmh 29.85 in1010.8 mb 0.00 in0.0 mm 0.00 in0.0 mm 0.13 in3.3 mm
09:06 PM 37.3°F2.9°C 34.4°F1.3°C 89% 5.0 mph WNW8.0 kmh WNW 14.0 mph22.5 kmh 29.85 in1010.8 mb 0.00 in0.0 mm 0.00 in0.0 mm 0.13 in3.3 mm
09:11 PM 37.3°F2.9°C 34.4°F1.3°C 89% 6.0 mph NW9.7 kmh NW 14.0 mph22.5 kmh 29.85 in1010.8 mb 0.00 in0.0 mm 0.00 in0.0 mm 0.13 in3.3 mm
09:16 PM 37.3°F2.9°C 34.4°F1.3°C 89% 8.0 mph WNW12.9 kmh WNW 13.0 mph20.9 kmh 29.85 in1010.8 mb 0.00 in0.0 mm 0.00 in0.0 mm 0.13 in3.3 mm
09:21 PM 37.3°F2.9°C 34.4°F1.3°C 89% 6.0 mph WNW9.7 kmh WNW 14.0 mph22.5 kmh 29.85 in1010.8 mb 0.00 in0.0 mm 0.00 in0.0 mm 0.13 in3.3 mm
09:26 PM 37.4°F3.0°C 34.5°F1.4°C 89% 8.0 mph WNW12.9 kmh WNW 14.0 mph22.5 kmh 29.86 in1011.2 mb 0.00 in0.0 mm 0.00 in0.0 mm 0.13 in3.3 mm
09:31 PM 37.3°F2.9°C 34.4°F1.3°C 89% 8.0 mph WNW12.9 kmh WNW 14.0 mph22.5 kmh 29.86 in1011.2 mb 0.00 in0.0 mm 0.00 in0.0 mm 0.13 in3.3 mm
09:36 PM 37.3°F2.9°C 34.4°F1.3°C 89% 5.0 mph WNW8.0 kmh WNW 14.0 mph22.5 kmh 29.86 in1011.2 mb 0.00 in0.0 mm 0.00 in0.0 mm 0.13 in3.3 mm
09:41 PM 37.3°F2.9°C 34.4°F1.3°C 89% 5.0 mph W8.0 kmh W 13.0 mph20.9 kmh 29.86 in1011.2 mb 0.00 in0.0 mm 0.00 in0.0 mm 0.13 in3.3 mm
09:46 PM 37.3°F2.9°C 34.4°F1.3°C 89% 8.0 mph WNW12.9 kmh WNW 13.0 mph20.9 kmh 29.86 in1011.2 mb 0.00 in0.0 mm 0.00 in0.0 mm 0.13 in3.3 mm
09:51 PM 37.3°F2.9°C 34.4°F1.3°C 89% 6.0 mph W9.7 kmh W 13.0 mph20.9 kmh 29.87 in1011.5 mb 0.00 in0.0 mm 0.00 in0.0 mm 0.13 in3.3 mm
09:56 PM 37.5°F3.1°C 34.6°F1.4°C 89% 7.0 mph WNW11.3 kmh WNW 14.0 mph22.5 kmh 29.87 in1011.5 mb 0.00 in0.0 mm 0.00 in0.0 mm 0.13 in3.3 mm
10:01 PM 37.5°F3.1°C 34.3°F1.3°C 88% 6.0 mph WNW9.7 kmh WNW 14.0 mph22.5 kmh 29.87 in1011.5 mb 0.00 in0.0 mm 0.00 in0.0 mm 0.13 in3.3 mm
10:06 PM 37.5°F3.1°C 34.3°F1.3°C 88% 7.0 mph NW11.3 kmh NW 14.0 mph22.5 kmh 29.87 in1011.5 mb 0.00 in0.0 mm 0.00 in0.0 mm 0.13 in3.3 mm
10:11 PM 37.5°F3.1°C 34.3°F1.3°C 88% 9.0 mph WNW14.5 kmh WNW 14.0 mph22.5 kmh 29.87 in1011.5 mb 0.00 in0.0 mm 0.00 in0.0 mm 0.13 in3.3 mm
10:16 PM 37.6°F3.1°C 34.4°F1.3°C 88% 9.0 mph NW14.5 kmh NW 17.0 mph27.4 kmh 29.87 in1011.5 mb 0.00 in0.0 mm 0.00 in0.0 mm 0.13 in3.3 mm
10:21 PM 37.7°F3.2°C 34.5°F1.4°C 88% 6.0 mph W9.7 kmh W 17.0 mph27.4 kmh 29.87 in1011.5 mb 0.00 in0.0 mm 0.00 in0.0 mm 0.13 in3.3 mm
10:26 PM 37.8°F3.2°C 34.6°F1.4°C 88% 6.0 mph WSW9.7 kmh WSW 17.0 mph27.4 kmh 29.88 in1011.9 mb 0.00 in0.0 mm 0.00 in0.0 mm 0.13 in3.3 mm
10:31 PM 37.7°F3.2°C 34.5°F1.4°C 88% 7.0 mph W11.3 kmh W 17.0 mph27.4 kmh 29.88 in1011.9 mb 0.00 in0.0 mm 0.00 in0.0 mm 0.13 in3.3 mm
10:36 PM 37.7°F3.2°C 34.5°F1.4°C 88% 5.0 mph W8.0 kmh W 15.0 mph24.1 kmh 29.88 in1011.9 mb 0.00 in0.0 mm 0.00 in0.0 mm 0.13 in3.3 mm
10:41 PM 38.0°F3.3°C 34.8°F1.6°C 88% 6.0 mph W9.7 kmh W 15.0 mph24.1 kmh 29.88 in1011.9 mb 0.00 in0.0 mm 0.00 in0.0 mm 0.13 in3.3 mm
10:46 PM 38.1°F3.4°C 34.6°F1.4°C 87% 13.0 mph WNW20.9 kmh WNW 17.0 mph27.4 kmh 29.88 in1011.9 mb 0.00 in0.0 mm 0.00 in0.0 mm 0.13 in3.3 mm
10:51 PM 38.1°F3.4°C 34.6°F1.4°C 87% 12.0 mph W19.3 kmh W 17.0 mph27.4 kmh 29.88 in1011.9 mb 0.00 in0.0 mm 0.00 in0.0 mm 0.13 in3.3 mm
10:56 PM 38.4°F3.6°C 34.6°F1.4°C 86% 8.0 mph NW12.9 kmh NW 18.0 mph29.0 kmh 29.88 in1011.9 mb 0.00 in0.0 mm 0.00 in0.0 mm 0.13 in3.3 mm
11:01 PM 38.4°F3.6°C 34.6°F1.4°C 86% 13.0 mph NW20.9 kmh NW 18.0 mph29.0 kmh 29.88 in1011.9 mb 0.00 in0.0 mm 0.00 in0.0 mm 0.13 in3.3 mm
11:06 PM 38.4°F3.6°C 34.3°F1.3°C 85% 9.0 mph W14.5 kmh W 20.0 mph32.2 kmh 29.89 in1012.2 mb 0.00 in0.0 mm 0.00 in0.0 mm 0.13 in3.3 mm
11:11 PM 38.5°F3.6°C 34.4°F1.3°C 85% 14.0 mph WNW22.5 kmh WNW 20.0 mph32.2 kmh 29.89 in1012.2 mb 0.00 in0.0 mm 0.00 in0.0 mm 0.13 in3.3 mm
11:16 PM 38.5°F3.6°C 34.4°F1.3°C 85% 4.0 mph NW6.4 kmh NW 20.0 mph32.2 kmh 29.89 in1012.2 mb 0.00 in0.0 mm 0.00 in0.0 mm 0.13 in3.3 mm
11:21 PM 38.3°F3.5°C 34.2°F1.2°C 85% 5.0 mph NW8.0 kmh NW 20.0 mph32.2 kmh 29.89 in1012.2 mb 0.00 in0.0 mm 0.00 in0.0 mm 0.13 in3.3 mm
11:26 PM 38.2°F3.4°C 34.4°F1.3°C 86% 6.0 mph W9.7 kmh W 16.0 mph25.7 kmh 29.89 in1012.2 mb 0.00 in0.0 mm 0.00 in0.0 mm 0.13 in3.3 mm
11:31 PM 38.1°F3.4°C 34.3°F1.3°C 86% 8.0 mph W12.9 kmh W 16.0 mph25.7 kmh 29.89 in1012.2 mb 0.00 in0.0 mm 0.00 in0.0 mm 0.13 in3.3 mm
11:36 PM 38.1°F3.4°C 34.3°F1.3°C 86% 6.0 mph W9.7 kmh W 17.0 mph27.4 kmh 29.89 in1012.2 mb 0.00 in0.0 mm 0.00 in0.0 mm 0.13 in3.3 mm
11:41 PM 38.1°F3.4°C 34.0°F1.1°C 85% 5.0 mph WNW8.0 kmh WNW 17.0 mph27.4 kmh 29.90 in1012.5 mb 0.00 in0.0 mm 0.00 in0.0 mm 0.13 in3.3 mm
11:46 PM 37.8°F3.2°C 34.0°F1.1°C 86% 5.0 mph WNW8.0 kmh WNW 17.0 mph27.4 kmh 29.90 in1012.5 mb 0.00 in0.0 mm 0.00 in0.0 mm 0.13 in3.3 mm
11:51 PM 37.7°F3.2°C 33.9°F1.1°C 86% 9.0 mph W14.5 kmh W 17.0 mph27.4 kmh 29.90 in1012.5 mb 0.00 in0.0 mm 0.00 in0.0 mm 0.13 in3.3 mm
11:56 PM 37.9°F3.3°C 34.1°F1.2°C 86% 10.0 mph W16.1 kmh W 19.0 mph30.6 kmh 29.90 in1012.5 mb 0.00 in0.0 mm 0.00 in0.0 mm 0.13 in3.3 mm